sensor_id;sensor_type;location;lat;lon;timestamp;temperature;humidity
69731;SHT31;56996;48.138;11.538;2024-03-29T00:01:37;6.06;62.30
69731;SHT31;56996;48.138;11.538;2024-03-29T00:04:03;6.07;62.37
69731;SHT31;56996;48.138;11.538;2024-03-29T00:06:30;6.07;62.40
69731;SHT31;56996;48.138;11.538;2024-03-29T00:08:57;6.08;62.45
69731;SHT31;56996;48.138;11.538;2024-03-29T00:11:24;6.07;62.51
69731;SHT31;56996;48.138;11.538;2024-03-29T00:13:50;6.07;62.58
69731;SHT31;56996;48.138;11.538;2024-03-29T00:16:17;6.06;62.67
69731;SHT31;56996;48.138;11.538;2024-03-29T00:18:43;6.04;62.74
69731;SHT31;56996;48.138;11.538;2024-03-29T00:21:10;6.04;62.88
69731;SHT31;56996;48.138;11.538;2024-03-29T00:23:36;6.02;62.92
69731;SHT31;56996;48.138;11.538;2024-03-29T00:26:03;5.99;63.00
69731;SHT31;56996;48.138;11.538;2024-03-29T00:28:30;5.96;63.14
69731;SHT31;56996;48.138;11.538;2024-03-29T00:30:56;5.93;63.20
69731;SHT31;56996;48.138;11.538;2024-03-29T00:33:23;5.92;63.29
69731;SHT31;56996;48.138;11.538;2024-03-29T00:35:50;5.91;63.38
69731;SHT31;56996;48.138;11.538;2024-03-29T00:38:17;5.89;63.47
69731;SHT31;56996;48.138;11.538;2024-03-29T00:40:43;5.85;63.63
69731;SHT31;56996;48.138;11.538;2024-03-29T00:43:10;5.80;63.84
69731;SHT31;56996;48.138;11.538;2024-03-29T00:45:36;5.77;63.95
69731;SHT31;56996;48.138;11.538;2024-03-29T00:48:03;5.73;64.07
69731;SHT31;56996;48.138;11.538;2024-03-29T00:50:30;5.71;64.20
69731;SHT31;56996;48.138;11.538;2024-03-29T00:52:56;5.70;64.28
69731;SHT31;56996;48.138;11.538;2024-03-29T00:55:23;5.68;64.28
69731;SHT31;56996;48.138;11.538;2024-03-29T00:57:50;5.67;64.37
69731;SHT31;56996;48.138;11.538;2024-03-29T01:00:17;5.66;64.43
69731;SHT31;56996;48.138;11.538;2024-03-29T01:02:47;5.63;64.56
69731;SHT31;56996;48.138;11.538;2024-03-29T01:05:14;5.61;64.60
69731;SHT31;56996;48.138;11.538;2024-03-29T01:07:40;5.59;64.61
69731;SHT31;56996;48.138;11.538;2024-03-29T01:10:08;5.57;64.70
69731;SHT31;56996;48.138;11.538;2024-03-29T01:12:35;5.56;64.79
69731;SHT31;56996;48.138;11.538;2024-03-29T01:15:02;5.51;64.93
69731;SHT31;56996;48.138;11.538;2024-03-29T01:17:29;5.50;64.91
69731;SHT31;56996;48.138;11.538;2024-03-29T01:19:56;5.48;65.00
69731;SHT31;56996;48.138;11.538;2024-03-29T01:22:22;5.47;65.06
69731;SHT31;56996;48.138;11.538;2024-03-29T01:24:49;5.42;65.29
69731;SHT31;56996;48.138;11.538;2024-03-29T01:27:15;5.38;65.39
69731;SHT31;56996;48.138;11.538;2024-03-29T01:29:42;5.36;65.59
69731;SHT31;56996;48.138;11.538;2024-03-29T01:32:08;5.34;65.62
69731;SHT31;56996;48.138;11.538;2024-03-29T01:34:35;5.35;65.69
69731;SHT31;56996;48.138;11.538;2024-03-29T01:37:01;5.32;65.78
69731;SHT31;56996;48.138;11.538;2024-03-29T01:39:28;5.31;65.86
69731;SHT31;56996;48.138;11.538;2024-03-29T01:41:57;5.31;66.02
69731;SHT31;56996;48.138;11.538;2024-03-29T01:44:24;5.29;66.09
69731;SHT31;56996;48.138;11.538;2024-03-29T01:46:50;5.30;66.13
69731;SHT31;56996;48.138;11.538;2024-03-29T01:49:17;5.28;66.26
69731;SHT31;56996;48.138;11.538;2024-03-29T01:51:44;5.27;66.31
69731;SHT31;56996;48.138;11.538;2024-03-29T01:54:11;5.27;66.33
69731;SHT31;56996;48.138;11.538;2024-03-29T01:56:38;5.26;66.44
69731;SHT31;56996;48.138;11.538;2024-03-29T01:59:08;5.26;66.46
69731;SHT31;56996;48.138;11.538;2024-03-29T02:01:43;5.25;66.46
69731;SHT31;56996;48.138;11.538;2024-03-29T02:04:11;5.25;66.50
69731;SHT31;56996;48.138;11.538;2024-03-29T02:06:38;5.24;66.48
69731;SHT31;56996;48.138;11.538;2024-03-29T02:09:05;5.23;66.55
69731;SHT31;56996;48.138;11.538;2024-03-29T02:11:32;5.22;66.58
69731;SHT31;56996;48.138;11.538;2024-03-29T02:14:00;5.22;66.55
69731;SHT31;56996;48.138;11.538;2024-03-29T02:16:27;5.22;66.50
69731;SHT31;56996;48.138;11.538;2024-03-29T02:18:54;5.22;66.50
69731;SHT31;56996;48.138;11.538;2024-03-29T02:21:20;5.23;66.47
69731;SHT31;56996;48.138;11.538;2024-03-29T02:23:47;5.23;66.46
69731;SHT31;56996;48.138;11.538;2024-03-29T02:26:40;5.22;66.44
69731;SHT31;56996;48.138;11.538;2024-03-29T02:29:08;5.22;66.33
69731;SHT31;56996;48.138;11.538;2024-03-29T02:31:38;5.24;66.28
69731;SHT31;56996;48.138;11.538;2024-03-29T02:34:05;5.24;66.21
69731;SHT31;56996;48.138;11.538;2024-03-29T02:36:33;5.24;66.19
69731;SHT31;56996;48.138;11.538;2024-03-29T02:39:00;5.24;66.20
69731;SHT31;56996;48.138;11.538;2024-03-29T02:41:27;5.23;66.23
69731;SHT31;56996;48.138;11.538;2024-03-29T02:43:56;5.22;66.31
69731;SHT31;56996;48.138;11.538;2024-03-29T02:46:23;5.23;66.24
69731;SHT31;56996;48.138;11.538;2024-03-29T02:48:50;5.23;66.23
69731;SHT31;56996;48.138;11.538;2024-03-29T02:51:16;5.23;66.18
69731;SHT31;56996;48.138;11.538;2024-03-29T02:53:43;5.26;66.10
69731;SHT31;56996;48.138;11.538;2024-03-29T02:56:10;5.26;66.11
69731;SHT31;56996;48.138;11.538;2024-03-29T02:58:36;5.27;66.13
69731;SHT31;56996;48.138;11.538;2024-03-29T03:01:09;5.27;66.16
69731;SHT31;56996;48.138;11.538;2024-03-29T03:03:36;5.25;66.21
69731;SHT31;56996;48.138;11.538;2024-03-29T03:06:03;5.21;66.35
69731;SHT31;56996;48.138;11.538;2024-03-29T03:08:30;5.18;66.43
69731;SHT31;56996;48.138;11.538;2024-03-29T03:11:15;5.15;66.46
69731;SHT31;56996;48.138;11.538;2024-03-29T03:13:42;5.15;66.47
69731;SHT31;56996;48.138;11.538;2024-03-29T03:16:08;5.14;66.50
69731;SHT31;56996;48.138;11.538;2024-03-29T03:18:35;5.12;66.50
69731;SHT31;56996;48.138;11.538;2024-03-29T03:21:01;5.11;66.49
69731;SHT31;56996;48.138;11.538;2024-03-29T03:23:28;5.11;66.55
69731;SHT31;56996;48.138;11.538;2024-03-29T03:28:23;5.10;66.55
69731;SHT31;56996;48.138;11.538;2024-03-29T03:30:51;5.10;66.51
69731;SHT31;56996;48.138;11.538;2024-03-29T03:33:19;5.08;66.59
69731;SHT31;56996;48.138;11.538;2024-03-29T03:35:46;5.08;66.68
69731;SHT31;56996;48.138;11.538;2024-03-29T03:38:13;5.07;66.73
69731;SHT31;56996;48.138;11.538;2024-03-29T03:40:40;5.06;66.73
69731;SHT31;56996;48.138;11.538;2024-03-29T03:43:07;5.06;66.79
69731;SHT31;56996;48.138;11.538;2024-03-29T03:45:35;5.05;66.74
69731;SHT31;56996;48.138;11.538;2024-03-29T03:48:03;5.03;66.75
69731;SHT31;56996;48.138;11.538;2024-03-29T03:50:31;5.04;66.71
69731;SHT31;56996;48.138;11.538;2024-03-29T03:52:57;5.03;66.75
69731;SHT31;56996;48.138;11.538;2024-03-29T03:55:24;5.02;66.78
69731;SHT31;56996;48.138;11.538;2024-03-29T03:57:52;5.02;66.80
69731;SHT31;56996;48.138;11.538;2024-03-29T04:00:20;5.00;66.90
69731;SHT31;56996;48.138;11.538;2024-03-29T04:02:48;4.99;66.95
69731;SHT31;56996;48.138;11.538;2024-03-29T04:05:20;5.00;66.94
69731;SHT31;56996;48.138;11.538;2024-03-29T04:07:47;5.00;66.92
69731;SHT31;56996;48.138;11.538;2024-03-29T04:10:14;4.99;66.91
69731;SHT31;56996;48.138;11.538;2024-03-29T04:12:40;5.00;66.91
69731;SHT31;56996;48.138;11.538;2024-03-29T04:15:07;5.01;66.85
69731;SHT31;56996;48.138;11.538;2024-03-29T04:17:34;5.02;66.87
69731;SHT31;56996;48.138;11.538;2024-03-29T04:20:02;5.04;66.88
69731;SHT31;56996;48.138;11.538;2024-03-29T04:22:30;5.03;66.80
69731;SHT31;56996;48.138;11.538;2024-03-29T04:24:57;5.03;66.89
69731;SHT31;56996;48.138;11.538;2024-03-29T04:27:23;5.03;67.01
69731;SHT31;56996;48.138;11.538;2024-03-29T04:29:50;5.02;67.04
69731;SHT31;56996;48.138;11.538;2024-03-29T04:32:18;5.03;67.02
69731;SHT31;56996;48.138;11.538;2024-03-29T04:34:48;5.02;67.03
69731;SHT31;56996;48.138;11.538;2024-03-29T04:37:16;5.02;67.11
69731;SHT31;56996;48.138;11.538;2024-03-29T04:39:43;5.01;67.28
69731;SHT31;56996;48.138;11.538;2024-03-29T04:42:10;4.97;67.42
69731;SHT31;56996;48.138;11.538;2024-03-29T04:44:37;4.98;67.34
69731;SHT31;56996;48.138;11.538;2024-03-29T04:47:04;4.99;67.32
69731;SHT31;56996;48.138;11.538;2024-03-29T04:49:31;5.00;67.45
69731;SHT31;56996;48.138;11.538;2024-03-29T04:52:03;5.02;67.37
69731;SHT31;56996;48.138;11.538;2024-03-29T04:54:31;5.04;67.39
69731;SHT31;56996;48.138;11.538;2024-03-29T04:57:01;5.04;67.39
69731;SHT31;56996;48.138;11.538;2024-03-29T04:59:29;5.07;67.31
69731;SHT31;56996;48.138;11.538;2024-03-29T05:01:56;5.07;67.26
69731;SHT31;56996;48.138;11.538;2024-03-29T05:04:23;5.08;67.20
69731;SHT31;56996;48.138;11.538;2024-03-29T05:06:53;5.12;67.14
69731;SHT31;56996;48.138;11.538;2024-03-29T05:09:24;5.14;67.06
69731;SHT31;56996;48.138;11.538;2024-03-29T05:11:51;5.18;66.99
69731;SHT31;56996;48.138;11.538;2024-03-29T05:14:20;5.20;66.88
69731;SHT31;56996;48.138;11.538;2024-03-29T05:16:48;5.24;66.74
69731;SHT31;56996;48.138;11.538;2024-03-29T05:19:15;5.28;66.65
69731;SHT31;56996;48.138;11.538;2024-03-29T05:21:42;5.32;66.60
69731;SHT31;56996;48.138;11.538;2024-03-29T05:24:09;5.36;66.50
69731;SHT31;56996;48.138;11.538;2024-03-29T05:26:36;5.41;66.46
69731;SHT31;56996;48.138;11.538;2024-03-29T05:29:02;5.44;66.35
69731;SHT31;56996;48.138;11.538;2024-03-29T05:31:30;5.49;66.24
69731;SHT31;56996;48.138;11.538;2024-03-29T05:33:57;5.54;66.12
69731;SHT31;56996;48.138;11.538;2024-03-29T05:36:23;5.58;65.97
69731;SHT31;56996;48.138;11.538;2024-03-29T05:38:50;5.63;65.87
69731;SHT31;56996;48.138;11.538;2024-03-29T05:41:16;5.70;65.62
69731;SHT31;56996;48.138;11.538;2024-03-29T05:43:43;5.82;65.34
69731;SHT31;56996;48.138;11.538;2024-03-29T05:46:09;5.89;65.07
69731;SHT31;56996;48.138;11.538;2024-03-29T05:48:36;5.97;64.88
69731;SHT31;56996;48.138;11.538;2024-03-29T05:51:04;6.08;64.51
69731;SHT31;56996;48.138;11.538;2024-03-29T05:53:31;6.19;64.22
69731;SHT31;56996;48.138;11.538;2024-03-29T05:55:57;6.30;63.86
69731;SHT31;56996;48.138;11.538;2024-03-29T05:58:24;6.35;63.64
69731;SHT31;56996;48.138;11.538;2024-03-29T06:00:50;6.42;63.60
69731;SHT31;56996;48.138;11.538;2024-03-29T06:03:17;6.54;63.28
69731;SHT31;56996;48.138;11.538;2024-03-29T06:05:43;6.63;63.12
69731;SHT31;56996;48.138;11.538;2024-03-29T06:08:09;6.72;63.00
69731;SHT31;56996;48.138;11.538;2024-03-29T06:10:36;6.78;62.84
69731;SHT31;56996;48.138;11.538;2024-03-29T06:13:03;6.79;62.72
69731;SHT31;56996;48.138;11.538;2024-03-29T06:15:53;6.80;62.75
69731;SHT31;56996;48.138;11.538;2024-03-29T06:18:38;6.87;62.70
69731;SHT31;56996;48.138;11.538;2024-03-29T06:21:05;6.97;62.41
69731;SHT31;56996;48.138;11.538;2024-03-29T06:23:31;7.09;62.25
69731;SHT31;56996;48.138;11.538;2024-03-29T06:25:58;7.25;61.96
69731;SHT31;56996;48.138;11.538;2024-03-29T06:28:24;7.43;61.65
69731;SHT31;56996;48.138;11.538;2024-03-29T06:30:51;7.63;61.27
69731;SHT31;56996;48.138;11.538;2024-03-29T06:33:17;7.87;60.76
69731;SHT31;56996;48.138;11.538;2024-03-29T06:35:52;8.03;60.33
69731;SHT31;56996;48.138;11.538;2024-03-29T06:38:20;8.15;60.27
69731;SHT31;56996;48.138;11.538;2024-03-29T06:40:47;8.25;60.11
69731;SHT31;56996;48.138;11.538;2024-03-29T06:43:14;8.28;59.95
69731;SHT31;56996;48.138;11.538;2024-03-29T06:45:40;8.42;59.74
69731;SHT31;56996;48.138;11.538;2024-03-29T06:48:10;8.58;59.29
69731;SHT31;56996;48.138;11.538;2024-03-29T06:50:37;8.68;59.06
69731;SHT31;56996;48.138;11.538;2024-03-29T06:53:04;8.80;58.63
69731;SHT31;56996;48.138;11.538;2024-03-29T06:55:31;8.94;58.40
69731;SHT31;56996;48.138;11.538;2024-03-29T06:57:57;9.04;57.98
69731;SHT31;56996;48.138;11.538;2024-03-29T07:00:24;9.07;57.84
69731;SHT31;56996;48.138;11.538;2024-03-29T07:02:50;9.06;57.33
69731;SHT31;56996;48.138;11.538;2024-03-29T07:05:17;9.07;57.51
69731;SHT31;56996;48.138;11.538;2024-03-29T07:07:43;9.16;57.43
69731;SHT31;56996;48.138;11.538;2024-03-29T07:10:13;9.25;57.24
69731;SHT31;56996;48.138;11.538;2024-03-29T07:12:39;9.30;57.17
69731;SHT31;56996;48.138;11.538;2024-03-29T07:15:06;9.35;56.97
69731;SHT31;56996;48.138;11.538;2024-03-29T07:17:33;9.43;56.77
69731;SHT31;56996;48.138;11.538;2024-03-29T07:20:00;9.54;56.51
69731;SHT31;56996;48.138;11.538;2024-03-29T07:22:26;9.63;56.12
69731;SHT31;56996;48.138;11.538;2024-03-29T07:25:02;9.83;55.76
69731;SHT31;56996;48.138;11.538;2024-03-29T07:27:31;10.12;55.25
69731;SHT31;56996;48.138;11.538;2024-03-29T07:29:59;10.32;54.94
69731;SHT31;56996;48.138;11.538;2024-03-29T07:32:26;10.45;54.63
69731;SHT31;56996;48.138;11.538;2024-03-29T07:34:52;10.56;54.34
69731;SHT31;56996;48.138;11.538;2024-03-29T07:37:21;10.64;54.14
69731;SHT31;56996;48.138;11.538;2024-03-29T07:39:48;10.73;53.72
69731;SHT31;56996;48.138;11.538;2024-03-29T07:42:14;10.90;53.57
69731;SHT31;56996;48.138;11.538;2024-03-29T07:44:41;11.18;52.99
69731;SHT31;56996;48.138;11.538;2024-03-29T07:47:08;11.49;52.34
69731;SHT31;56996;48.138;11.538;2024-03-29T07:49:35;11.77;51.72
69731;SHT31;56996;48.138;11.538;2024-03-29T07:52:03;11.92;51.00
69731;SHT31;56996;48.138;11.538;2024-03-29T07:54:32;12.15;51.01
69731;SHT31;56996;48.138;11.538;2024-03-29T07:56:58;12.40;50.84
69731;SHT31;56996;48.138;11.538;2024-03-29T07:59:25;12.58;50.53
69731;SHT31;56996;48.138;11.538;2024-03-29T08:01:51;12.71;50.37
69731;SHT31;56996;48.138;11.538;2024-03-29T08:04:20;12.85;50.14
69731;SHT31;56996;48.138;11.538;2024-03-29T08:06:46;12.96;49.57
69731;SHT31;56996;48.138;11.538;2024-03-29T08:09:13;13.09;49.53
69731;SHT31;56996;48.138;11.538;2024-03-29T08:11:42;13.22;49.50
69731;SHT31;56996;48.138;11.538;2024-03-29T08:14:09;13.43;49.25
69731;SHT31;56996;48.138;11.538;2024-03-29T08:16:35;13.56;48.83
69731;SHT31;56996;48.138;11.538;2024-03-29T08:19:02;13.63;48.57
69731;SHT31;56996;48.138;11.538;2024-03-29T08:21:29;13.71;48.45
69731;SHT31;56996;48.138;11.538;2024-03-29T08:23:55;13.81;48.07
69731;SHT31;56996;48.138;11.538;2024-03-29T08:26:22;13.93;48.24
69731;SHT31;56996;48.138;11.538;2024-03-29T08:28:49;14.13;47.94
69731;SHT31;56996;48.138;11.538;2024-03-29T08:31:16;14.32;47.34
69731;SHT31;56996;48.138;11.538;2024-03-29T08:33:42;14.56;47.06
69731;SHT31;56996;48.138;11.538;2024-03-29T08:36:23;15.03;46.11
69731;SHT31;56996;48.138;11.538;2024-03-29T08:38:49;16.02;44.91
69731;SHT31;56996;48.138;11.538;2024-03-29T08:41:16;17.09;43.45
69731;SHT31;56996;48.138;11.538;2024-03-29T08:43:43;17.80;42.38
69731;SHT31;56996;48.138;11.538;2024-03-29T08:46:09;18.04;41.48
69731;SHT31;56996;48.138;11.538;2024-03-29T08:48:35;18.49;40.96
69731;SHT31;56996;48.138;11.538;2024-03-29T08:51:08;18.95;40.09
69731;SHT31;56996;48.138;11.538;2024-03-29T08:53:35;19.25;39.73
69731;SHT31;56996;48.138;11.538;2024-03-29T08:56:02;19.47;39.40
69731;SHT31;56996;48.138;11.538;2024-03-29T08:58:29;19.44;38.33
69731;SHT31;56996;48.138;11.538;2024-03-29T09:00:55;19.15;38.92
69731;SHT31;56996;48.138;11.538;2024-03-29T09:03:23;19.17;39.05
69731;SHT31;56996;48.138;11.538;2024-03-29T09:05:51;19.30;37.65
69731;SHT31;56996;48.138;11.538;2024-03-29T09:08:17;19.53;35.93
69731;SHT31;56996;48.138;11.538;2024-03-29T09:10:44;19.83;35.68
69731;SHT31;56996;48.138;11.538;2024-03-29T09:13:11;20.06;34.68
69731;SHT31;56996;48.138;11.538;2024-03-29T09:15:38;20.12;34.26
69731;SHT31;56996;48.138;11.538;2024-03-29T09:18:05;20.18;33.93
69731;SHT31;56996;48.138;11.538;2024-03-29T09:20:56;20.25;33.65
69731;SHT31;56996;48.138;11.538;2024-03-29T09:23:26;20.40;33.37
69731;SHT31;56996;48.138;11.538;2024-03-29T09:25:58;20.48;32.66
69731;SHT31;56996;48.138;11.538;2024-03-29T09:28:24;20.55;32.34
69731;SHT31;56996;48.138;11.538;2024-03-29T09:30:57;20.67;32.69
69731;SHT31;56996;48.138;11.538;2024-03-29T09:33:25;20.86;32.45
69731;SHT31;56996;48.138;11.538;2024-03-29T09:35:51;21.07;32.18
69731;SHT31;56996;48.138;11.538;2024-03-29T09:38:20;21.33;31.47
69731;SHT31;56996;48.138;11.538;2024-03-29T09:40:49;21.45;30.68
69731;SHT31;56996;48.138;11.538;2024-03-29T09:43:26;21.51;30.40
69731;SHT31;56996;48.138;11.538;2024-03-29T09:45:57;21.49;30.26
69731;SHT31;56996;48.138;11.538;2024-03-29T09:48:24;21.68;30.51
69731;SHT31;56996;48.138;11.538;2024-03-29T09:50:53;21.89;30.00
69731;SHT31;56996;48.138;11.538;2024-03-29T09:53:22;21.87;29.85
69731;SHT31;56996;48.138;11.538;2024-03-29T09:55:49;21.77;29.99
69731;SHT31;56996;48.138;11.538;2024-03-29T09:58:20;21.57;29.73
69731;SHT31;56996;48.138;11.538;2024-03-29T10:00:47;21.40;29.99
69731;SHT31;56996;48.138;11.538;2024-03-29T10:03:13;21.31;30.21
69731;SHT31;56996;48.138;11.538;2024-03-29T10:05:40;21.30;30.37
69731;SHT31;56996;48.138;11.538;2024-03-29T10:08:07;21.27;30.46
69731;SHT31;56996;48.138;11.538;2024-03-29T10:10:34;21.22;30.32
69731;SHT31;56996;48.138;11.538;2024-03-29T10:13:01;21.17;30.09
69731;SHT31;56996;48.138;11.538;2024-03-29T10:15:29;21.09;30.20
69731;SHT31;56996;48.138;11.538;2024-03-29T10:17:58;21.08;30.40
69731;SHT31;56996;48.138;11.538;2024-03-29T10:20:25;21.09;30.31
69731;SHT31;56996;48.138;11.538;2024-03-29T10:22:53;21.09;30.15
69731;SHT31;56996;48.138;11.538;2024-03-29T10:25:20;21.08;30.01
69731;SHT31;56996;48.138;11.538;2024-03-29T10:27:46;21.10;30.03
69731;SHT31;56996;48.138;11.538;2024-03-29T10:30:13;21.13;29.77
69731;SHT31;56996;48.138;11.538;2024-03-29T10:32:45;21.05;29.69
69731;SHT31;56996;48.138;11.538;2024-03-29T10:35:12;21.09;30.20
69731;SHT31;56996;48.138;11.538;2024-03-29T10:37:38;21.14;29.94
69731;SHT31;56996;48.138;11.538;2024-03-29T10:40:09;21.14;30.06
69731;SHT31;56996;48.138;11.538;2024-03-29T10:42:37;21.17;30.06
69731;SHT31;56996;48.138;11.538;2024-03-29T10:45:07;21.15;30.17
69731;SHT31;56996;48.138;11.538;2024-03-29T10:47:34;21.20;30.23
69731;SHT31;56996;48.138;11.538;2024-03-29T10:50:02;21.27;30.14
69731;SHT31;56996;48.138;11.538;2024-03-29T10:52:31;21.37;29.98
69731;SHT31;56996;48.138;11.538;2024-03-29T10:54:58;21.51;30.08
69731;SHT31;56996;48.138;11.538;2024-03-29T10:57:25;21.67;29.72
69731;SHT31;56996;48.138;11.538;2024-03-29T11:05:35;21.80;29.03
69731;SHT31;56996;48.138;11.538;2024-03-29T11:08:05;21.79;29.30
69731;SHT31;56996;48.138;11.538;2024-03-29T11:10:36;21.78;29.24
69731;SHT31;56996;48.138;11.538;2024-03-29T11:16:31;21.76;29.21
69731;SHT31;56996;48.138;11.538;2024-03-29T11:18:58;21.75;29.44
69731;SHT31;56996;48.138;11.538;2024-03-29T11:21:25;21.80;29.56
69731;SHT31;56996;48.138;11.538;2024-03-29T11:23:54;21.81;29.47
69731;SHT31;56996;48.138;11.538;2024-03-29T11:26:23;21.81;29.10
69731;SHT31;56996;48.138;11.538;2024-03-29T11:28:52;21.81;29.12
69731;SHT31;56996;48.138;11.538;2024-03-29T11:31:22;21.84;28.99
69731;SHT31;56996;48.138;11.538;2024-03-29T11:33:50;21.84;29.09
69731;SHT31;56996;48.138;11.538;2024-03-29T11:36:21;21.84;28.96
69731;SHT31;56996;48.138;11.538;2024-03-29T11:38:50;21.89;29.20
69731;SHT31;56996;48.138;11.538;2024-03-29T11:41:22;21.91;29.04
69731;SHT31;56996;48.138;11.538;2024-03-29T11:43:54;21.92;28.94
69731;SHT31;56996;48.138;11.538;2024-03-29T11:46:21;21.91;29.11
69731;SHT31;56996;48.138;11.538;2024-03-29T11:48:49;21.94;29.24
69731;SHT31;56996;48.138;11.538;2024-03-29T11:51:21;21.97;29.21
69731;SHT31;56996;48.138;11.538;2024-03-29T11:53:50;21.97;28.86
69731;SHT31;56996;48.138;11.538;2024-03-29T11:56:18;21.89;29.14
69731;SHT31;56996;48.138;11.538;2024-03-29T11:58:45;21.89;29.25
69731;SHT31;56996;48.138;11.538;2024-03-29T12:01:14;21.94;29.49
69731;SHT31;56996;48.138;11.538;2024-03-29T12:03:42;22.02;29.31
69731;SHT31;56996;48.138;11.538;2024-03-29T12:06:13;22.02;29.33
69731;SHT31;56996;48.138;11.538;2024-03-29T12:08:41;22.03;29.24
69731;SHT31;56996;48.138;11.538;2024-03-29T12:11:09;22.08;29.28
69731;SHT31;56996;48.138;11.538;2024-03-29T12:13:36;22.25;28.99
69731;SHT31;56996;48.138;11.538;2024-03-29T12:16:03;22.38;28.93
69731;SHT31;56996;48.138;11.538;2024-03-29T12:18:31;22.48;28.72
69731;SHT31;56996;48.138;11.538;2024-03-29T12:20:58;22.58;28.59
69731;SHT31;56996;48.138;11.538;2024-03-29T12:23:25;22.76;28.32
69731;SHT31;56996;48.138;11.538;2024-03-29T12:25:56;22.89;28.18
69731;SHT31;56996;48.138;11.538;2024-03-29T12:28:24;22.86;28.27
69731;SHT31;56996;48.138;11.538;2024-03-29T12:30:52;22.89;28.29
69731;SHT31;56996;48.138;11.538;2024-03-29T12:33:21;23.01;28.27
69731;SHT31;56996;48.138;11.538;2024-03-29T12:35:49;23.05;28.08
69731;SHT31;56996;48.138;11.538;2024-03-29T12:38:20;23.01;27.84
69731;SHT31;56996;48.138;11.538;2024-03-29T12:40:48;23.03;27.82
69731;SHT31;56996;48.138;11.538;2024-03-29T12:43:20;23.05;27.64
69731;SHT31;56996;48.138;11.538;2024-03-29T12:45:49;23.00;27.65
69731;SHT31;56996;48.138;11.538;2024-03-29T12:48:18;22.97;27.64
69731;SHT31;56996;48.138;11.538;2024-03-29T12:50:49;23.02;27.83
69731;SHT31;56996;48.138;11.538;2024-03-29T12:53:16;23.04;27.65
69731;SHT31;56996;48.138;11.538;2024-03-29T12:55:44;23.11;27.97
69731;SHT31;56996;48.138;11.538;2024-03-29T12:58:16;23.15;27.51
69731;SHT31;56996;48.138;11.538;2024-03-29T13:00:46;23.15;27.57
69731;SHT31;56996;48.138;11.538;2024-03-29T13:03:13;23.23;27.52
69731;SHT31;56996;48.138;11.538;2024-03-29T13:05:40;23.31;27.39
69731;SHT31;56996;48.138;11.538;2024-03-29T13:08:08;23.40;27.02
69731;SHT31;56996;48.138;11.538;2024-03-29T13:10:37;23.41;26.41
69731;SHT31;56996;48.138;11.538;2024-03-29T13:13:06;23.43;26.41
69731;SHT31;56996;48.138;11.538;2024-03-29T13:15:35;23.51;26.51
69731;SHT31;56996;48.138;11.538;2024-03-29T13:18:03;23.55;26.46
69731;SHT31;56996;48.138;11.538;2024-03-29T13:20:31;23.65;26.36
69731;SHT31;56996;48.138;11.538;2024-03-29T13:23:01;23.69;25.98
69731;SHT31;56996;48.138;11.538;2024-03-29T13:25:27;23.68;25.77
69731;SHT31;56996;48.138;11.538;2024-03-29T13:27:54;23.71;26.18
69731;SHT31;56996;48.138;11.538;2024-03-29T13:30:22;23.83;26.06
69731;SHT31;56996;48.138;11.538;2024-03-29T13:32:51;23.90;25.71
69731;SHT31;56996;48.138;11.538;2024-03-29T13:35:19;23.91;25.81
69731;SHT31;56996;48.138;11.538;2024-03-29T13:37:50;23.89;25.36
69731;SHT31;56996;48.138;11.538;2024-03-29T13:40:20;23.72;25.42
69731;SHT31;56996;48.138;11.538;2024-03-29T13:42:52;23.64;25.75
69731;SHT31;56996;48.138;11.538;2024-03-29T13:45:19;23.59;25.86
69731;SHT31;56996;48.138;11.538;2024-03-29T13:47:46;23.54;25.68
69731;SHT31;56996;48.138;11.538;2024-03-29T13:50:13;23.49;25.86
69731;SHT31;56996;48.138;11.538;2024-03-29T13:52:41;23.45;26.04
69731;SHT31;56996;48.138;11.538;2024-03-29T13:55:09;23.55;26.09
69731;SHT31;56996;48.138;11.538;2024-03-29T13:57:36;23.67;25.92
69731;SHT31;56996;48.138;11.538;2024-03-29T14:00:04;23.74;25.82
69731;SHT31;56996;48.138;11.538;2024-03-29T14:02:33;23.80;25.35
69731;SHT31;56996;48.138;11.538;2024-03-29T14:04:59;23.68;25.51
69731;SHT31;56996;48.138;11.538;2024-03-29T14:07:26;23.56;25.61
69731;SHT31;56996;48.138;11.538;2024-03-29T14:09:54;23.47;25.66
69731;SHT31;56996;48.138;11.538;2024-03-29T14:12:20;23.40;25.82
69731;SHT31;56996;48.138;11.538;2024-03-29T14:14:48;23.29;25.82
69731;SHT31;56996;48.138;11.538;2024-03-29T14:17:17;23.14;25.77
69731;SHT31;56996;48.138;11.538;2024-03-29T14:19:44;23.03;25.81
69731;SHT31;56996;48.138;11.538;2024-03-29T14:22:11;22.91;25.97
69731;SHT31;56996;48.138;11.538;2024-03-29T14:24:41;22.84;26.24
69731;SHT31;56996;48.138;11.538;2024-03-29T14:27:08;22.84;26.29
69731;SHT31;56996;48.138;11.538;2024-03-29T14:29:34;22.79;26.34
69731;SHT31;56996;48.138;11.538;2024-03-29T14:32:01;22.76;25.98
69731;SHT31;56996;48.138;11.538;2024-03-29T14:34:28;22.70;26.31
69731;SHT31;56996;48.138;11.538;2024-03-29T14:36:58;22.67;26.33
69731;SHT31;56996;48.138;11.538;2024-03-29T14:39:24;22.64;26.60
69731;SHT31;56996;48.138;11.538;2024-03-29T14:41:52;22.62;26.74
69731;SHT31;56996;48.138;11.538;2024-03-29T14:44:20;22.59;26.84
69731;SHT31;56996;48.138;11.538;2024-03-29T14:46:47;22.58;27.08
69731;SHT31;56996;48.138;11.538;2024-03-29T14:49:14;22.57;27.18
69731;SHT31;56996;48.138;11.538;2024-03-29T14:51:43;22.58;27.21
69731;SHT31;56996;48.138;11.538;2024-03-29T14:54:13;22.61;27.13
69731;SHT31;56996;48.138;11.538;2024-03-29T14:56:44;22.68;27.07
69731;SHT31;56996;48.138;11.538;2024-03-29T14:59:11;22.72;26.58
69731;SHT31;56996;48.138;11.538;2024-03-29T15:01:38;22.69;26.36
69731;SHT31;56996;48.138;11.538;2024-03-29T15:04:08;22.70;26.48
69731;SHT31;56996;48.138;11.538;2024-03-29T15:06:35;22.71;26.56
69731;SHT31;56996;48.138;11.538;2024-03-29T15:09:01;22.73;26.20
69731;SHT31;56996;48.138;11.538;2024-03-29T15:11:30;22.73;25.93
69731;SHT31;56996;48.138;11.538;2024-03-29T15:13:59;22.71;25.75
69731;SHT31;56996;48.138;11.538;2024-03-29T15:16:25;22.72;25.92
69731;SHT31;56996;48.138;11.538;2024-03-29T15:18:54;22.75;25.45
69731;SHT31;56996;48.138;11.538;2024-03-29T15:21:22;22.78;25.53
69731;SHT31;56996;48.138;11.538;2024-03-29T15:23:49;22.74;25.52
69731;SHT31;56996;48.138;11.538;2024-03-29T15:26:16;22.73;25.53
69731;SHT31;56996;48.138;11.538;2024-03-29T15:28:45;22.74;25.41
69731;SHT31;56996;48.138;11.538;2024-03-29T15:31:39;22.67;25.23
69731;SHT31;56996;48.138;11.538;2024-03-29T15:34:07;22.59;25.44
69731;SHT31;56996;48.138;11.538;2024-03-29T15:36:34;22.50;25.30
69731;SHT31;56996;48.138;11.538;2024-03-29T15:39:02;22.38;25.36